Soaring Guidance
Issued by NWS Reno, NV

Home | Current Version | Previous Version | Text Only | Print | Product List | Glossary On
Versions: 1 2 3 4 5 6 7 8 9 10 11 12 13
000
UXUS97 KREV 021346
SRGREV

SOARING FORECAST
NATIONAL WEATHER SERVICE - RENO NV
700 AM PDT THU JUL 2 2015

THIS SOARING FORECAST IS FOR THE EASTERN SIERRA AND WESTERN NEVADA
WITH SPECIFIC INDICES FOR THE GREATER RENO AREA.

THIS FORECAST IS PREPARED DAILY BY 700 AM AND IS NOT UPDATED.

FOR CURRENT FLIGHT CONDITIONS...FORECASTS...AND ADVISORIES...ACCESS
YOUR LOCAL BRIEFING OUTLET OR FLIGHT SERVICE STATION.

*******************************************************************
FORECASTED LOCAL INDICES FOR RENO:        TODAY     YESTERDAY
FORECASTED MAX TEMP AT RENO (DEG F).....    100         101
FORECASTED TRIGGER TEMPERATURE (DEG F)..     87          87
   EXCEEDED YESTERDAY BY 1155 AM PDT
FORECASTED MAXIMUM ALTITUDE (FT MSL)....  17900       17900
FORECASTED SOARING INDEX (FPM)..........   1197        1167
FORECASTED K-INDEX.........VALID 18Z....     20          21
FORECASTED K-INDEX.........VALID 00Z....     28          25
FORECASTED LIFTED INDEX....VALID 18Z....      6           4
FORECASTED LIFTED INDEX....VALID 00Z....      1           2

AFTERNOON WINDS ALOFT FORECAST
MSL (FT) WIND/TEMP
9000  9900/+22
10000 9900/+19
12000 9900/+13
14000 9902/+06
16000 9905/+00
18000  813/-06
24000 1117/-16
30000 1321/-31
34000 1321/-42
39000 9900/-55

SLIDE MOUNTAIN DATA:
     DATE       TIME     TEMP  DEWPT   RH         WIND (MPH)
                        (F)   (F)           | DIR  SPEED GUST
2015-07-02    05:50      59    42     51    | 259    3    8
2015-07-02    05:30      60    42     50    | 260    2    6
2015-07-02    05:20      60    42     49    | 231    0    0
2015-07-02    05:00      62    41     44    | 082    2    7

RENO TAF FORECAST:
KRNO 021124Z 0212/0312 VRB04KT P6SM BKN200
     FM022300 13006KT P6SM VCTS SCT070CB BKN120
     FM030300 09008KT P6SM VCSH SCT080 BKN120
     FM030600 VRB03KT P6SM BKN140

CARSON CITY TAF FORECAST:
KCXP 021124Z 0212/0312 VRB03KT P6SM BKN200
     FM022300 08008G14KT P6SM VCTS SCT080CB BKN140
     FM030100 08015KT P6SM TSRA BKN060CB BKN120
     FM030300 VRB03KT P6SM BKN140

OUTLOOK FOR THE RENO-CARSON CITY-MINDEN AREA:
.FRIDAY...PARTLY CLOUDY. ISOLATED SHOWERS AND THUNDERSTORMS IN
THE AFTERNOON. HIGHS 96 TO 101. WEST WINDS AROUND 10 MPH IN THE
MORNING BECOMING LIGHT.

SUNRISE AND SUNSET
JULY  2 2015..........SUNRISE   536 AM PDT   SUNSET   830 PM PDT
JULY  3 2015..........SUNRISE   537 AM PDT   SUNSET   830 PM PDT


USA.gov is the U.S. government's official web portal to all federal, state and local government web resources and services.